sensor_id;sensor_type;location;lat;lon;timestamp;P1;durP1;ratioP1;P2;durP2;ratioP2
11228;SDS011;5671;47.936;8.716;2023-02-28T00:00:11;2.30;;;2.10;;
11228;SDS011;5671;47.936;8.716;2023-02-28T00:02:40;3.63;;;2.00;;
11228;SDS011;5671;47.936;8.716;2023-02-28T00:05:09;2.58;;;2.38;;
11228;SDS011;5671;47.936;8.716;2023-02-28T00:07:38;2.50;;;2.15;;
11228;SDS011;5671;47.936;8.716;2023-02-28T00:10:07;3.27;;;2.33;;
11228;SDS011;5671;47.936;8.716;2023-02-28T00:12:36;2.53;;;2.33;;
11228;SDS011;5671;47.936;8.716;2023-02-28T00:15:05;3.08;;;2.60;;
11228;SDS011;5671;47.936;8.716;2023-02-28T00:17:32;2.63;;;2.43;;
11228;SDS011;5671;47.936;8.716;2023-02-28T00:19:59;2.90;;;2.40;;
11228;SDS011;5671;47.936;8.716;2023-02-28T00:22:35;2.55;;;2.35;;
11228;SDS011;5671;47.936;8.716;2023-02-28T00:25:04;2.83;;;2.50;;
11228;SDS011;5671;47.936;8.716;2023-02-28T00:27:33;2.63;;;2.42;;
11228;SDS011;5671;47.936;8.716;2023-02-28T00:30:00;2.50;;;2.30;;
11228;SDS011;5671;47.936;8.716;2023-02-28T00:32:27;3.00;;;2.30;;
11228;SDS011;5671;47.936;8.716;2023-02-28T00:34:54;4.65;;;2.70;;
11228;SDS011;5671;47.936;8.716;2023-02-28T00:37:21;3.75;;;2.30;;
11228;SDS011;5671;47.936;8.716;2023-02-28T00:39:49;2.63;;;2.42;;
11228;SDS011;5671;47.936;8.716;2023-02-28T00:42:17;2.83;;;2.47;;
11228;SDS011;5671;47.936;8.716;2023-02-28T00:44:44;2.60;;;2.40;;
11228;SDS011;5671;47.936;8.716;2023-02-28T00:47:10;3.65;;;2.67;;
11228;SDS011;5671;47.936;8.716;2023-02-28T00:49:37;2.33;;;2.13;;
11228;SDS011;5671;47.936;8.716;2023-02-28T00:52:04;2.50;;;2.30;;
11228;SDS011;5671;47.936;8.716;2023-02-28T00:54:31;2.75;;;2.40;;
11228;SDS011;5671;47.936;8.716;2023-02-28T00:56:58;2.58;;;2.38;;
11228;SDS011;5671;47.936;8.716;2023-02-28T00:59:27;2.70;;;2.50;;
11228;SDS011;5671;47.936;8.716;2023-02-28T01:01:53;2.60;;;2.40;;
11228;SDS011;5671;47.936;8.716;2023-02-28T01:04:21;2.67;;;2.47;;
11228;SDS011;5671;47.936;8.716;2023-02-28T01:06:48;4.13;;;2.28;;
11228;SDS011;5671;47.936;8.716;2023-02-28T01:09:14;2.80;;;2.30;;
11228;SDS011;5671;47.936;8.716;2023-02-28T01:11:41;2.78;;;2.20;;
11228;SDS011;5671;47.936;8.716;2023-02-28T01:14:09;2.65;;;2.38;;
11228;SDS011;5671;47.936;8.716;2023-02-28T01:16:40;2.20;;;2.00;;
11228;SDS011;5671;47.936;8.716;2023-02-28T01:19:07;2.42;;;2.22;;
11228;SDS011;5671;47.936;8.716;2023-02-28T01:21:34;2.88;;;2.45;;
11228;SDS011;5671;47.936;8.716;2023-02-28T01:24:01;3.90;;;2.33;;
11228;SDS011;5671;47.936;8.716;2023-02-28T01:26:29;2.70;;;2.50;;
11228;SDS011;5671;47.936;8.716;2023-02-28T01:28:56;2.55;;;2.35;;
11228;SDS011;5671;47.936;8.716;2023-02-28T01:31:23;2.63;;;2.40;;
11228;SDS011;5671;47.936;8.716;2023-02-28T01:33:52;3.43;;;2.40;;
11228;SDS011;5671;47.936;8.716;2023-02-28T01:36:19;2.67;;;2.47;;
11228;SDS011;5671;47.936;8.716;2023-02-28T01:38:48;2.50;;;2.30;;
11228;SDS011;5671;47.936;8.716;2023-02-28T01:41:16;2.47;;;2.17;;
11228;SDS011;5671;47.936;8.716;2023-02-28T01:43:55;2.53;;;2.27;;
11228;SDS011;5671;47.936;8.716;2023-02-28T01:46:28;2.95;;;2.30;;
11228;SDS011;5671;47.936;8.716;2023-02-28T01:48:58;3.28;;;2.45;;
11228;SDS011;5671;47.936;8.716;2023-02-28T01:51:30;3.28;;;2.40;;
11228;SDS011;5671;47.936;8.716;2023-02-28T01:54:05;2.38;;;2.17;;
11228;SDS011;5671;47.936;8.716;2023-02-28T01:56:38;2.63;;;2.42;;
11228;SDS011;5671;47.936;8.716;2023-02-28T01:59:09;3.00;;;2.33;;
11228;SDS011;5671;47.936;8.716;2023-02-28T02:01:39;2.83;;;2.63;;
11228;SDS011;5671;47.936;8.716;2023-02-28T02:04:07;2.40;;;2.17;;
11228;SDS011;5671;47.936;8.716;2023-02-28T02:06:36;2.95;;;2.33;;
11228;SDS011;5671;47.936;8.716;2023-02-28T02:09:06;2.88;;;2.30;;
11228;SDS011;5671;47.936;8.716;2023-02-28T02:11:33;2.60;;;2.40;;
11228;SDS011;5671;47.936;8.716;2023-02-28T02:14:06;3.28;;;2.40;;
11228;SDS011;5671;47.936;8.716;2023-02-28T02:16:51;2.50;;;2.30;;
11228;SDS011;5671;47.936;8.716;2023-02-28T02:20:00;2.92;;;2.60;;
11228;SDS011;5671;47.936;8.716;2023-02-28T02:25:50;2.67;;;2.47;;
11228;SDS011;5671;47.936;8.716;2023-02-28T02:31:47;3.70;;;2.53;;
11228;SDS011;5671;47.936;8.716;2023-02-28T02:34:40;2.60;;;2.40;;
11228;SDS011;5671;47.936;8.716;2023-02-28T02:37:17;2.75;;;2.40;;
11228;SDS011;5671;47.936;8.716;2023-02-28T02:39:58;5.82;;;2.60;;
11228;SDS011;5671;47.936;8.716;2023-02-28T02:42:30;2.80;;;2.40;;
11228;SDS011;5671;47.936;8.716;2023-02-28T02:45:03;2.55;;;2.10;;
11228;SDS011;5671;47.936;8.716;2023-02-28T02:47:33;2.95;;;2.45;;
11228;SDS011;5671;47.936;8.716;2023-02-28T02:50:05;3.07;;;2.80;;
11228;SDS011;5671;47.936;8.716;2023-02-28T02:52:38;2.50;;;2.30;;
11228;SDS011;5671;47.936;8.716;2023-02-28T02:55:11;3.00;;;2.70;;
11228;SDS011;5671;47.936;8.716;2023-02-28T02:57:40;3.13;;;2.22;;
11228;SDS011;5671;47.936;8.716;2023-02-28T03:00:14;2.83;;;2.53;;
11228;SDS011;5671;47.936;8.716;2023-02-28T03:02:44;2.90;;;2.42;;
11228;SDS011;5671;47.936;8.716;2023-02-28T03:05:17;5.07;;;2.75;;
11228;SDS011;5671;47.936;8.716;2023-02-28T03:07:46;2.83;;;2.45;;
11228;SDS011;5671;47.936;8.716;2023-02-28T03:10:26;2.60;;;2.40;;
11228;SDS011;5671;47.936;8.716;2023-02-28T03:12:57;2.63;;;2.42;;
11228;SDS011;5671;47.936;8.716;2023-02-28T03:15:34;3.13;;;2.30;;
11228;SDS011;5671;47.936;8.716;2023-02-28T03:18:10;2.80;;;2.60;;
11228;SDS011;5671;47.936;8.716;2023-02-28T03:20:45;2.95;;;2.60;;
11228;SDS011;5671;47.936;8.716;2023-02-28T03:23:26;2.83;;;2.60;;
11228;SDS011;5671;47.936;8.716;2023-02-28T03:26:01;3.05;;;2.72;;
11228;SDS011;5671;47.936;8.716;2023-02-28T03:28:34;2.88;;;2.50;;
11228;SDS011;5671;47.936;8.716;2023-02-28T03:31:10;3.38;;;2.60;;
11228;SDS011;5671;47.936;8.716;2023-02-28T03:33:43;2.70;;;2.50;;
11228;SDS011;5671;47.936;8.716;2023-02-28T03:36:21;2.30;;;2.10;;
11228;SDS011;5671;47.936;8.716;2023-02-28T03:38:52;5.00;;;2.70;;
11228;SDS011;5671;47.936;8.716;2023-02-28T03:41:23;3.20;;;2.70;;
11228;SDS011;5671;47.936;8.716;2023-02-28T03:43:55;3.00;;;2.70;;
11228;SDS011;5671;47.936;8.716;2023-02-28T03:46:25;3.38;;;2.75;;
11228;SDS011;5671;47.936;8.716;2023-02-28T03:49:00;3.30;;;2.75;;
11228;SDS011;5671;47.936;8.716;2023-02-28T03:51:33;3.25;;;2.72;;
11228;SDS011;5671;47.936;8.716;2023-02-28T03:54:03;2.73;;;2.50;;
11228;SDS011;5671;47.936;8.716;2023-02-28T03:56:33;3.20;;;2.75;;
11228;SDS011;5671;47.936;8.716;2023-02-28T03:59:04;3.13;;;2.83;;
11228;SDS011;5671;47.936;8.716;2023-02-28T04:01:34;3.90;;;3.03;;
11228;SDS011;5671;47.936;8.716;2023-02-28T04:04:04;3.07;;;2.77;;
11228;SDS011;5671;47.936;8.716;2023-02-28T04:06:33;3.00;;;2.58;;
11228;SDS011;5671;47.936;8.716;2023-02-28T04:09:00;3.20;;;2.90;;
11228;SDS011;5671;47.936;8.716;2023-02-28T04:11:30;3.58;;;3.25;;
11228;SDS011;5671;47.936;8.716;2023-02-28T04:14:00;3.42;;;3.00;;
11228;SDS011;5671;47.936;8.716;2023-02-28T04:16:27;2.83;;;2.55;;
11228;SDS011;5671;47.936;8.716;2023-02-28T04:18:54;2.92;;;2.63;;
11228;SDS011;5671;47.936;8.716;2023-02-28T04:21:27;3.08;;;2.78;;
11228;SDS011;5671;47.936;8.716;2023-02-28T04:23:55;3.03;;;2.72;;
11228;SDS011;5671;47.936;8.716;2023-02-28T04:26:25;3.60;;;2.75;;
11228;SDS011;5671;47.936;8.716;2023-02-28T04:28:54;3.15;;;2.67;;
11228;SDS011;5671;47.936;8.716;2023-02-28T04:31:22;3.00;;;2.70;;
11228;SDS011;5671;47.936;8.716;2023-02-28T04:33:49;3.70;;;3.13;;
11228;SDS011;5671;47.936;8.716;2023-02-28T04:36:16;3.60;;;2.83;;
11228;SDS011;5671;47.936;8.716;2023-02-28T04:38:44;3.30;;;2.50;;
11228;SDS011;5671;47.936;8.716;2023-02-28T04:41:12;3.17;;;2.80;;
11228;SDS011;5671;47.936;8.716;2023-02-28T04:43:39;4.18;;;2.90;;
11228;SDS011;5671;47.936;8.716;2023-02-28T04:46:06;3.63;;;2.88;;
11228;SDS011;5671;47.936;8.716;2023-02-28T04:48:35;3.25;;;2.83;;
11228;SDS011;5671;47.936;8.716;2023-02-28T04:51:03;3.60;;;2.83;;
11228;SDS011;5671;47.936;8.716;2023-02-28T04:53:31;3.30;;;3.00;;
11228;SDS011;5671;47.936;8.716;2023-02-28T04:56:01;3.22;;;2.75;;
11228;SDS011;5671;47.936;8.716;2023-02-28T04:58:29;3.10;;;2.90;;
11228;SDS011;5671;47.936;8.716;2023-02-28T05:01:01;3.15;;;2.85;;
11228;SDS011;5671;47.936;8.716;2023-02-28T05:03:28;3.30;;;3.00;;
11228;SDS011;5671;47.936;8.716;2023-02-28T05:05:55;3.53;;;3.22;;
11228;SDS011;5671;47.936;8.716;2023-02-28T05:08:22;3.47;;;3.17;;
11228;SDS011;5671;47.936;8.716;2023-02-28T05:10:50;3.83;;;3.42;;
11228;SDS011;5671;47.936;8.716;2023-02-28T05:13:17;4.00;;;3.30;;
11228;SDS011;5671;47.936;8.716;2023-02-28T05:15:45;3.65;;;2.80;;
11228;SDS011;5671;47.936;8.716;2023-02-28T05:18:12;4.20;;;3.08;;
11228;SDS011;5671;47.936;8.716;2023-02-28T05:20:39;3.78;;;3.38;;
11228;SDS011;5671;47.936;8.716;2023-02-28T05:23:06;3.33;;;2.80;;
11228;SDS011;5671;47.936;8.716;2023-02-28T05:25:34;3.30;;;3.00;;
11228;SDS011;5671;47.936;8.716;2023-02-28T05:28:01;3.67;;;3.30;;
11228;SDS011;5671;47.936;8.716;2023-02-28T05:30:28;3.25;;;2.95;;
11228;SDS011;5671;47.936;8.716;2023-02-28T05:32:58;3.38;;;3.08;;
11228;SDS011;5671;47.936;8.716;2023-02-28T05:35:25;3.33;;;3.03;;
11228;SDS011;5671;47.936;8.716;2023-02-28T05:37:52;4.18;;;3.38;;
11228;SDS011;5671;47.936;8.716;2023-02-28T05:40:19;6.03;;;3.42;;
11228;SDS011;5671;47.936;8.716;2023-02-28T05:42:46;3.53;;;3.05;;
11228;SDS011;5671;47.936;8.716;2023-02-28T05:45:13;3.35;;;3.05;;
11228;SDS011;5671;47.936;8.716;2023-02-28T05:47:39;5.82;;;3.33;;
11228;SDS011;5671;47.936;8.716;2023-02-28T05:50:08;4.35;;;3.08;;
11228;SDS011;5671;47.936;8.716;2023-02-28T05:52:36;3.40;;;3.10;;
11228;SDS011;5671;47.936;8.716;2023-02-28T05:55:03;3.95;;;3.53;;
11228;SDS011;5671;47.936;8.716;2023-02-28T05:57:31;5.82;;;3.65;;
11228;SDS011;5671;47.936;8.716;2023-02-28T05:59:58;3.72;;;3.22;;
11228;SDS011;5671;47.936;8.716;2023-02-28T06:02:24;3.78;;;3.17;;
11228;SDS011;5671;47.936;8.716;2023-02-28T06:04:51;4.88;;;3.30;;
11228;SDS011;5671;47.936;8.716;2023-02-28T06:07:19;5.20;;;3.10;;
11228;SDS011;5671;47.936;8.716;2023-02-28T06:09:47;5.03;;;3.30;;
11228;SDS011;5671;47.936;8.716;2023-02-28T06:12:14;3.85;;;3.13;;
11228;SDS011;5671;47.936;8.716;2023-02-28T06:14:41;4.35;;;3.60;;
11228;SDS011;5671;47.936;8.716;2023-02-28T06:17:08;5.18;;;3.47;;
11228;SDS011;5671;47.936;8.716;2023-02-28T06:19:36;5.05;;;3.80;;
11228;SDS011;5671;47.936;8.716;2023-02-28T06:22:04;5.07;;;3.63;;
11228;SDS011;5671;47.936;8.716;2023-02-28T06:24:33;4.82;;;3.60;;
11228;SDS011;5671;47.936;8.716;2023-02-28T06:26:59;4.70;;;3.80;;
11228;SDS011;5671;47.936;8.716;2023-02-28T06:29:30;4.00;;;3.60;;
11228;SDS011;5671;47.936;8.716;2023-02-28T06:31:57;7.53;;;4.35;;
11228;SDS011;5671;47.936;8.716;2023-02-28T06:34:25;6.28;;;3.65;;
11228;SDS011;5671;47.936;8.716;2023-02-28T06:36:52;8.40;;;5.50;;
11228;SDS011;5671;47.936;8.716;2023-02-28T06:39:19;9.18;;;6.35;;
11228;SDS011;5671;47.936;8.716;2023-02-28T06:41:48;3.53;;;3.13;;
11228;SDS011;5671;47.936;8.716;2023-02-28T06:44:17;3.50;;;3.20;;
11228;SDS011;5671;47.936;8.716;2023-02-28T06:46:45;4.40;;;3.67;;
11228;SDS011;5671;47.936;8.716;2023-02-28T06:49:12;4.68;;;3.33;;
11228;SDS011;5671;47.936;8.716;2023-02-28T06:51:40;8.95;;;3.80;;
11228;SDS011;5671;47.936;8.716;2023-02-28T06:54:09;4.15;;;3.10;;
11228;SDS011;5671;47.936;8.716;2023-02-28T06:56:37;4.75;;;3.55;;
11228;SDS011;5671;47.936;8.716;2023-02-28T06:59:05;4.00;;;3.30;;
11228;SDS011;5671;47.936;8.716;2023-02-28T07:01:32;3.95;;;3.30;;
11228;SDS011;5671;47.936;8.716;2023-02-28T07:03:59;5.53;;;3.70;;
11228;SDS011;5671;47.936;8.716;2023-02-28T07:06:27;4.75;;;3.40;;
11228;SDS011;5671;47.936;8.716;2023-02-28T07:08:54;6.03;;;3.60;;
11228;SDS011;5671;47.936;8.716;2023-02-28T07:11:21;4.10;;;3.53;;
11228;SDS011;5671;47.936;8.716;2023-02-28T07:13:50;4.82;;;3.63;;
11228;SDS011;5671;47.936;8.716;2023-02-28T07:16:18;5.80;;;3.80;;
11228;SDS011;5671;47.936;8.716;2023-02-28T07:18:48;7.63;;;3.85;;
11228;SDS011;5671;47.936;8.716;2023-02-28T07:21:14;3.70;;;3.40;;
11228;SDS011;5671;47.936;8.716;2023-02-28T07:23:42;5.90;;;3.38;;
11228;SDS011;5671;47.936;8.716;2023-02-28T07:26:10;4.18;;;3.55;;
11228;SDS011;5671;47.936;8.716;2023-02-28T07:28:39;7.43;;;3.88;;
11228;SDS011;5671;47.936;8.716;2023-02-28T07:31:07;9.98;;;3.72;;
11228;SDS011;5671;47.936;8.716;2023-02-28T07:33:36;6.85;;;3.70;;
11228;SDS011;5671;47.936;8.716;2023-02-28T07:36:04;3.60;;;3.20;;
11228;SDS011;5671;47.936;8.716;2023-02-28T07:38:33;4.40;;;3.53;;
11228;SDS011;5671;47.936;8.716;2023-02-28T07:41:00;5.77;;;3.50;;
11228;SDS011;5671;47.936;8.716;2023-02-28T07:43:29;6.25;;;3.85;;
11228;SDS011;5671;47.936;8.716;2023-02-28T07:46:00;13.88;;;4.50;;
11228;SDS011;5671;47.936;8.716;2023-02-28T07:48:27;6.10;;;4.00;;
11228;SDS011;5671;47.936;8.716;2023-02-28T07:50:56;8.52;;;3.42;;
11228;SDS011;5671;47.936;8.716;2023-02-28T07:53:23;6.70;;;3.60;;
11228;SDS011;5671;47.936;8.716;2023-02-28T07:55:50;7.03;;;4.05;;
11228;SDS011;5671;47.936;8.716;2023-02-28T07:58:20;6.00;;;3.75;;
11228;SDS011;5671;47.936;8.716;2023-02-28T08:00:47;9.93;;;4.97;;
11228;SDS011;5671;47.936;8.716;2023-02-28T08:03:17;5.82;;;4.20;;
11228;SDS011;5671;47.936;8.716;2023-02-28T08:05:44;20.58;;;12.77;;
11228;SDS011;5671;47.936;8.716;2023-02-28T08:08:14;15.03;;;9.57;;
11228;SDS011;5671;47.936;8.716;2023-02-28T08:10:42;7.90;;;4.22;;
11228;SDS011;5671;47.936;8.716;2023-02-28T08:13:09;20.23;;;12.63;;
11228;SDS011;5671;47.936;8.716;2023-02-28T08:15:36;6.43;;;5.07;;
11228;SDS011;5671;47.936;8.716;2023-02-28T08:18:03;10.80;;;8.07;;
11228;SDS011;5671;47.936;8.716;2023-02-28T08:20:30;15.50;;;11.63;;
11228;SDS011;5671;47.936;8.716;2023-02-28T08:22:57;15.13;;;7.15;;
11228;SDS011;5671;47.936;8.716;2023-02-28T08:25:25;10.88;;;4.70;;
11228;SDS011;5671;47.936;8.716;2023-02-28T08:27:52;4.73;;;3.43;;
11228;SDS011;5671;47.936;8.716;2023-02-28T08:30:19;11.05;;;4.22;;
11228;SDS011;5671;47.936;8.716;2023-02-28T08:32:46;5.72;;;4.05;;
11228;SDS011;5671;47.936;8.716;2023-02-28T08:35:13;9.30;;;4.38;;
11228;SDS011;5671;47.936;8.716;2023-02-28T08:37:40;29.40;;;15.68;;
11228;SDS011;5671;47.936;8.716;2023-02-28T08:40:07;7.27;;;6.17;;
11228;SDS011;5671;47.936;8.716;2023-02-28T08:42:37;5.37;;;4.87;;
11228;SDS011;5671;47.936;8.716;2023-02-28T08:45:04;12.97;;;6.80;;
11228;SDS011;5671;47.936;8.716;2023-02-28T08:47:32;6.33;;;5.30;;
11228;SDS011;5671;47.936;8.716;2023-02-28T08:49:58;5.90;;;5.27;;
11228;SDS011;5671;47.936;8.716;2023-02-28T08:52:25;6.60;;;4.50;;
11228;SDS011;5671;47.936;8.716;2023-02-28T08:54:52;12.23;;;5.90;;
11228;SDS011;5671;47.936;8.716;2023-02-28T08:57:19;7.60;;;4.40;;
11228;SDS011;5671;47.936;8.716;2023-02-28T08:59:47;8.80;;;5.77;;
11228;SDS011;5671;47.936;8.716;2023-02-28T09:02:14;8.90;;;4.85;;
11228;SDS011;5671;47.936;8.716;2023-02-28T09:04:41;26.30;;;6.00;;
11228;SDS011;5671;47.936;8.716;2023-02-28T09:07:10;7.60;;;4.73;;
11228;SDS011;5671;47.936;8.716;2023-02-28T09:09:37;6.17;;;5.03;;
11228;SDS011;5671;47.936;8.716;2023-02-28T09:12:18;8.63;;;5.10;;
11228;SDS011;5671;47.936;8.716;2023-02-28T09:14:45;8.23;;;4.77;;
11228;SDS011;5671;47.936;8.716;2023-02-28T09:17:14;8.57;;;5.30;;
11228;SDS011;5671;47.936;8.716;2023-02-28T09:19:41;6.37;;;4.80;;
11228;SDS011;5671;47.936;8.716;2023-02-28T09:22:11;7.27;;;5.00;;
11228;SDS011;5671;47.936;8.716;2023-02-28T09:24:38;6.27;;;4.70;;
11228;SDS011;5671;47.936;8.716;2023-02-28T09:27:05;17.17;;;6.97;;
11228;SDS011;5671;47.936;8.716;2023-02-28T09:29:33;8.10;;;5.60;;
11228;SDS011;5671;47.936;8.716;2023-02-28T09:32:00;7.23;;;5.10;;
11228;SDS011;5671;47.936;8.716;2023-02-28T09:34:29;6.93;;;5.53;;
11228;SDS011;5671;47.936;8.716;2023-02-28T09:36:57;5.72;;;4.93;;
11228;SDS011;5671;47.936;8.716;2023-02-28T09:39:24;8.67;;;5.33;;
11228;SDS011;5671;47.936;8.716;2023-02-28T09:41:53;7.57;;;5.50;;
11228;SDS011;5671;47.936;8.716;2023-02-28T09:44:22;7.23;;;4.70;;
11228;SDS011;5671;47.936;8.716;2023-02-28T09:46:56;14.13;;;5.43;;
11228;SDS011;5671;47.936;8.716;2023-02-28T09:49:27;9.30;;;6.00;;
11228;SDS011;5671;47.936;8.716;2023-02-28T09:52:01;11.23;;;9.50;;
11228;SDS011;5671;47.936;8.716;2023-02-28T09:54:31;9.57;;;6.23;;
11228;SDS011;5671;47.936;8.716;2023-02-28T09:56:59;10.77;;;5.70;;
11228;SDS011;5671;47.936;8.716;2023-02-28T09:59:34;8.60;;;5.50;;
11228;SDS011;5671;47.936;8.716;2023-02-28T10:02:13;6.78;;;5.03;;
11228;SDS011;5671;47.936;8.716;2023-02-28T10:04:53;9.47;;;5.17;;
11228;SDS011;5671;47.936;8.716;2023-02-28T10:07:30;8.43;;;5.33;;
11228;SDS011;5671;47.936;8.716;2023-02-28T10:10:15;7.60;;;4.70;;
11228;SDS011;5671;47.936;8.716;2023-02-28T10:12:48;13.23;;;5.28;;
11228;SDS011;5671;47.936;8.716;2023-02-28T10:15:19;6.00;;;5.03;;
11228;SDS011;5671;47.936;8.716;2023-02-28T10:17:50;6.03;;;5.00;;
11228;SDS011;5671;47.936;8.716;2023-02-28T10:20:20;6.43;;;4.83;;
11228;SDS011;5671;47.936;8.716;2023-02-28T10:23:07;16.83;;;5.87;;
11228;SDS011;5671;47.936;8.716;2023-02-28T10:25:46;12.70;;;5.73;;
11228;SDS011;5671;47.936;8.716;2023-02-28T10:28:21;8.37;;;5.07;;
11228;SDS011;5671;47.936;8.716;2023-02-28T10:30:48;15.47;;;5.10;;
11228;SDS011;5671;47.936;8.716;2023-02-28T10:33:21;7.43;;;4.87;;
11228;SDS011;5671;47.936;8.716;2023-02-28T10:35:51;6.00;;;4.93;;
11228;SDS011;5671;47.936;8.716;2023-02-28T10:38:21;9.33;;;5.03;;
11228;SDS011;5671;47.936;8.716;2023-02-28T10:41:06;6.73;;;5.10;;
11228;SDS011;5671;47.936;8.716;2023-02-28T10:43:40;5.70;;;5.13;;
11228;SDS011;5671;47.936;8.716;2023-02-28T10:46:32;8.87;;;5.80;;
11228;SDS011;5671;47.936;8.716;2023-02-28T10:49:01;5.97;;;5.27;;
11228;SDS011;5671;47.936;8.716;2023-02-28T10:51:38;6.63;;;5.27;;
11228;SDS011;5671;47.936;8.716;2023-02-28T10:54:13;7.43;;;5.30;;
11228;SDS011;5671;47.936;8.716;2023-02-28T10:56:42;12.30;;;5.68;;
11228;SDS011;5671;47.936;8.716;2023-02-28T10:59:22;7.23;;;5.90;;
11228;SDS011;5671;47.936;8.716;2023-02-28T11:01:53;7.70;;;5.23;;
11228;SDS011;5671;47.936;8.716;2023-02-28T11:04:31;9.53;;;5.70;;
11228;SDS011;5671;47.936;8.716;2023-02-28T11:07:03;9.73;;;5.77;;
11228;SDS011;5671;47.936;8.716;2023-02-28T11:09:33;9.80;;;6.40;;
11228;SDS011;5671;47.936;8.716;2023-02-28T11:12:01;6.73;;;5.40;;
11228;SDS011;5671;47.936;8.716;2023-02-28T11:14:49;14.73;;;5.87;;
11228;SDS011;5671;47.936;8.716;2023-02-28T11:17:19;12.67;;;6.20;;
11228;SDS011;5671;47.936;8.716;2023-02-28T11:19:49;10.07;;;5.53;;
11228;SDS011;5671;47.936;8.716;2023-02-28T11:22:19;7.00;;;5.23;;
11228;SDS011;5671;47.936;8.716;2023-02-28T11:24:51;6.87;;;5.60;;
11228;SDS011;5671;47.936;8.716;2023-02-28T11:27:25;9.50;;;5.53;;
11228;SDS011;5671;47.936;8.716;2023-02-28T11:35:56;6.67;;;5.67;;
11228;SDS011;5671;47.936;8.716;2023-02-28T11:38:28;6.43;;;5.73;;
11228;SDS011;5671;47.936;8.716;2023-02-28T11:41:00;6.67;;;5.50;;
11228;SDS011;5671;47.936;8.716;2023-02-28T11:43:45;9.90;;;5.73;;
11228;SDS011;5671;47.936;8.716;2023-02-28T11:46:27;12.33;;;6.03;;
11228;SDS011;5671;47.936;8.716;2023-02-28T11:49:02;9.30;;;6.13;;
11228;SDS011;5671;47.936;8.716;2023-02-28T11:51:41;7.43;;;5.80;;
11228;SDS011;5671;47.936;8.716;2023-02-28T11:57:09;6.50;;;5.40;;
11228;SDS011;5671;47.936;8.716;2023-02-28T11:59:53;11.97;;;6.50;;
11228;SDS011;5671;47.936;8.716;2023-02-28T12:02:29;7.20;;;5.70;;
11228;SDS011;5671;47.936;8.716;2023-02-28T12:05:08;6.83;;;5.87;;
11228;SDS011;5671;47.936;8.716;2023-02-28T12:07:42;7.27;;;5.73;;
11228;SDS011;5671;47.936;8.716;2023-02-28T12:10:20;7.80;;;5.90;;
11228;SDS011;5671;47.936;8.716;2023-02-28T12:12:51;9.30;;;5.53;;
11228;SDS011;5671;47.936;8.716;2023-02-28T12:18:26;12.33;;;6.07;;
11228;SDS011;5671;47.936;8.716;2023-02-28T12:21:08;6.73;;;5.60;;
11228;SDS011;5671;47.936;8.716;2023-02-28T12:30:13;6.13;;;5.10;;
11228;SDS011;5671;47.936;8.716;2023-02-28T12:32:45;14.53;;;6.33;;
11228;SDS011;5671;47.936;8.716;2023-02-28T12:35:16;8.23;;;6.05;;
11228;SDS011;5671;47.936;8.716;2023-02-28T12:37:49;9.60;;;6.23;;
11228;SDS011;5671;47.936;8.716;2023-02-28T12:40:20;13.43;;;5.90;;
11228;SDS011;5671;47.936;8.716;2023-02-28T12:42:50;9.20;;;5.90;;
11228;SDS011;5671;47.936;8.716;2023-02-28T12:45:21;6.67;;;5.97;;
11228;SDS011;5671;47.936;8.716;2023-02-28T12:47:52;8.33;;;6.33;;
11228;SDS011;5671;47.936;8.716;2023-02-28T12:50:24;8.93;;;6.43;;
11228;SDS011;5671;47.936;8.716;2023-02-28T12:52:53;7.60;;;5.70;;
11228;SDS011;5671;47.936;8.716;2023-02-28T12:55:27;7.37;;;5.50;;
11228;SDS011;5671;47.936;8.716;2023-02-28T12:58:04;8.13;;;6.30;;
11228;SDS011;5671;47.936;8.716;2023-02-28T13:00:42;9.40;;;5.80;;
11228;SDS011;5671;47.936;8.716;2023-02-28T13:03:35;6.00;;;5.40;;
11228;SDS011;5671;47.936;8.716;2023-02-28T13:06:40;6.57;;;5.97;;
11228;SDS011;5671;47.936;8.716;2023-02-28T13:12:35;6.90;;;6.17;;
11228;SDS011;5671;47.936;8.716;2023-02-28T13:15:16;7.97;;;5.77;;
11228;SDS011;5671;47.936;8.716;2023-02-28T13:17:48;6.40;;;5.70;;
11228;SDS011;5671;47.936;8.716;2023-02-28T13:20:17;14.33;;;7.00;;
11228;SDS011;5671;47.936;8.716;2023-02-28T13:22:46;9.43;;;6.20;;
11228;SDS011;5671;47.936;8.716;2023-02-28T13:34:39;7.63;;;5.87;;
11228;SDS011;5671;47.936;8.716;2023-02-28T13:40:00;7.27;;;6.30;;
11228;SDS011;5671;47.936;8.716;2023-02-28T13:42:48;14.57;;;5.63;;
11228;SDS011;5671;47.936;8.716;2023-02-28T13:45:23;12.13;;;6.10;;
11228;SDS011;5671;47.936;8.716;2023-02-28T13:47:52;12.43;;;6.70;;
11228;SDS011;5671;47.936;8.716;2023-02-28T13:50:31;6.43;;;5.80;;
11228;SDS011;5671;47.936;8.716;2023-02-28T13:56:08;11.17;;;7.93;;
11228;SDS011;5671;47.936;8.716;2023-02-28T13:58:48;8.43;;;6.63;;
11228;SDS011;5671;47.936;8.716;2023-02-28T14:01:31;11.40;;;6.97;;
11228;SDS011;5671;47.936;8.716;2023-02-28T14:04:15;7.17;;;6.10;;
11228;SDS011;5671;47.936;8.716;2023-02-28T14:07:21;6.60;;;5.90;;
11228;SDS011;5671;47.936;8.716;2023-02-28T14:09:55;7.50;;;5.83;;
11228;SDS011;5671;47.936;8.716;2023-02-28T14:15:41;10.07;;;6.07;;
11228;SDS011;5671;47.936;8.716;2023-02-28T14:18:23;7.33;;;6.20;;
11228;SDS011;5671;47.936;8.716;2023-02-28T14:20:52;9.67;;;6.20;;
11228;SDS011;5671;47.936;8.716;2023-02-28T14:26:26;6.30;;;5.70;;
11228;SDS011;5671;47.936;8.716;2023-02-28T14:29:02;6.10;;;5.50;;
11228;SDS011;5671;47.936;8.716;2023-02-28T14:31:45;9.73;;;6.00;;
11228;SDS011;5671;47.936;8.716;2023-02-28T14:34:24;6.03;;;5.43;;
11228;SDS011;5671;47.936;8.716;2023-02-28T14:37:01;6.17;;;5.57;;
11228;SDS011;5671;47.936;8.716;2023-02-28T14:39:31;6.63;;;5.73;;
11228;SDS011;5671;47.936;8.716;2023-02-28T14:42:02;8.17;;;6.30;;
11228;SDS011;5671;47.936;8.716;2023-02-28T14:44:30;6.33;;;5.67;;
11228;SDS011;5671;47.936;8.716;2023-02-28T14:46:57;7.80;;;5.87;;
11228;SDS011;5671;47.936;8.716;2023-02-28T14:49:29;9.67;;;5.97;;
11228;SDS011;5671;47.936;8.716;2023-02-28T14:52:02;9.40;;;5.10;;
11228;SDS011;5671;47.936;8.716;2023-02-28T14:54:36;7.10;;;5.57;;
11228;SDS011;5671;47.936;8.716;2023-02-28T14:57:03;7.53;;;5.70;;
11228;SDS011;5671;47.936;8.716;2023-02-28T14:59:31;6.43;;;5.37;;
11228;SDS011;5671;47.936;8.716;2023-02-28T15:02:19;6.33;;;5.40;;
11228;SDS011;5671;47.936;8.716;2023-02-28T15:04:54;5.67;;;5.17;;
11228;SDS011;5671;47.936;8.716;2023-02-28T15:07:23;6.97;;;5.20;;
11228;SDS011;5671;47.936;8.716;2023-02-28T15:10:09;5.87;;;5.27;;
11228;SDS011;5671;47.936;8.716;2023-02-28T15:12:37;10.53;;;5.47;;
11228;SDS011;5671;47.936;8.716;2023-02-28T15:15:13;11.07;;;5.33;;
11228;SDS011;5671;47.936;8.716;2023-02-28T15:17:41;7.30;;;5.60;;
11228;SDS011;5671;47.936;8.716;2023-02-28T15:20:12;6.90;;;5.73;;
11228;SDS011;5671;47.936;8.716;2023-02-28T15:22:41;7.57;;;5.77;;
11228;SDS011;5671;47.936;8.716;2023-02-28T15:25:10;6.57;;;5.27;;
11228;SDS011;5671;47.936;8.716;2023-02-28T15:27:43;8.83;;;7.73;;
11228;SDS011;5671;47.936;8.716;2023-02-28T15:30:15;7.93;;;5.97;;
11228;SDS011;5671;47.936;8.716;2023-02-28T15:32:46;9.77;;;5.80;;
11228;SDS011;5671;47.936;8.716;2023-02-28T15:35:31;11.87;;;7.27;;
11228;SDS011;5671;47.936;8.716;2023-02-28T15:38:00;11.47;;;6.70;;
11228;SDS011;5671;47.936;8.716;2023-02-28T15:40:35;15.53;;;6.23;;
11228;SDS011;5671;47.936;8.716;2023-02-28T15:43:04;9.33;;;5.60;;
11228;SDS011;5671;47.936;8.716;2023-02-28T15:45:33;14.03;;;6.10;;
11228;SDS011;5671;47.936;8.716;2023-02-28T15:48:09;9.10;;;6.10;;
11228;SDS011;5671;47.936;8.716;2023-02-28T15:50:42;8.83;;;5.30;;
11228;SDS011;5671;47.936;8.716;2023-02-28T15:53:13;7.37;;;6.07;;
11228;SDS011;5671;47.936;8.716;2023-02-28T15:55:44;10.17;;;5.90;;
11228;SDS011;5671;47.936;8.716;2023-02-28T15:58:17;9.13;;;5.63;;
11228;SDS011;5671;47.936;8.716;2023-02-28T16:00:59;10.10;;;6.07;;
11228;SDS011;5671;47.936;8.716;2023-02-28T16:03:37;13.33;;;6.00;;
11228;SDS011;5671;47.936;8.716;2023-02-28T16:19:58;8.57;;;5.97;;
11228;SDS011;5671;47.936;8.716;2023-02-28T16:22:29;10.80;;;6.20;;
11228;SDS011;5671;47.936;8.716;2023-02-28T16:31:49;6.70;;;6.00;;
11228;SDS011;5671;47.936;8.716;2023-02-28T16:44:22;9.83;;;6.97;;